OISA  Abadeh  Airport

Abadeh, Iran

Add Bookmark
ICAO OISA
Type Airport
Status Operational
Latitude
31° 10' 0" N
31.166668
Longitude
52° 40' 0" E
52.666668
Local (GMT +4.5 ) UTC
Jul 25, 2016 02:48 am Jul 24, 2016 22:18
Sunrise-Sunset Local UTC
Begin Civil Twilight 05:44 am 01:14
Sunrise 06:10 am 01:40
Sunset 08:00 pm 15:30
End Civil Twilight 08:27 pm 15:57
VFR
VFR
MVFR
MVFR
IFR
IFR
LIFR
LIFR
Unknown
Unavailable

Current Weather

METAR Observed VFR
OISA 141855Z 34008KT 9999 FEW040 27/04 Q1020 Thu, Jul 14, 2016 @ 18:55 UTC
(1 Week, 3 Days, 3 Hours, 23 Minutes ago)
Visual Flight Rules
Wind Visibility Clouds Conditions
340° at 8 knots (15 kph) 10 km or more
  • Few at 4,000 ft AGL
  • No significant weather
Temperatures Readings Precipitation
Current Temp
27°C
81°F
Dewpoint
4°C
39°F
Humidity 23%
Altimeter 30.12" Hg
Sea Level Pressure 1,020 mb
Field Elevation
2,004 m
6,575 ft
None Recorded
-
-

CheckWX.com is intended as a tool to help pilots better visualize weather data. It is not intended as a substitute for an official weather briefing obtained from a Flight Service Station. CheckWX.com does not meet the FAA requirements for an official pre-flight weather briefing. Therefore, it's important that pilots still call and obtain an official FSS pre-flight weather briefing.

© 2007-2016 CheckWX.com
22:18:15 UTC